Flugplatz Burgheim (UL)

Hier findest Du alle Informationen zum Flugplatz Burgheim (UL).

Informationen für Piloten zum Flugplatz Burgheim

Hier findest Du alle relevanten Informationen, die Du als Pilot benötigst, um Burgheim anzufliegen.

Flugplatz: Burgheim ICAO-Code: UL Flugplatz
Frequenz Turm: 122,3 Mhz GAFOR Gebiet: -
Frequenz Ground: 122,3 Mhz Mogas: ja
Platzrunde: SW 2000 ft Landegebühr: 5,00 €
Platzhöhe: Sunrise: 04:13 Uhr UTC
Pisten: 14/32 - 650 m x 60 m, GRAS Sunset: 18:16 Uhr UTC

Mitglieder, die in Burgheim fliegen

Flugwetter am Flugplatz Burgheim

Die METAR Information stammen aus EDMA (30.58 km entfernt).

METAR Code:
2021/04/15 23:20
EDMA 152320Z AUTO 31002KT 9999 FEW063/// M03/M05 Q1024

Flugschulen am Flugplatz Burgheim

Am Flugplatz Burgheim gibt es leider keine Flugschule.

Benachbarte Flugplätze und Flugschulen

Es gibt 14 weitere Flugplätze in einem Umkreis von 50 km um den Flugplatz Burgheim.

Jetzt anmelden

Passwort vergessen

Umfrage Archiv

Seid Ihr aufgrund von Corona im Jahr 2020 mehr oder weniger geflogen als im Jahr zuvor?

weniger
53.6 %
gleich viel
29 %
mehr
17.5 %
Stimmen: 183 | Diskussion
Anzeige: Roland Aircraft
Statistik Alle Mitglieder

Aktuell sind 39 Besucher online, davon 1 Mitglied und 38 Gäste.


Mitglieder online:
Chango 

Anzeige: VFR Sprechfunk Simulator


Anzeige: Pocket FMS